sensor_id;sensor_type;location;lat;lon;timestamp;P1;durP1;ratioP1;P2;durP2;ratioP2
64188;SDS011;50493;50.970;10.082;2024-02-04T00:00:30;2.53;;;1.48;;
64188;SDS011;50493;50.970;10.082;2024-02-04T00:02:56;3.97;;;1.95;;
64188;SDS011;50493;50.970;10.082;2024-02-04T00:05:21;3.33;;;1.92;;
64188;SDS011;50493;50.970;10.082;2024-02-04T00:07:47;4.03;;;1.80;;
64188;SDS011;50493;50.970;10.082;2024-02-04T00:10:12;3.55;;;2.20;;
64188;SDS011;50493;50.970;10.082;2024-02-04T00:12:41;3.60;;;2.00;;
64188;SDS011;50493;50.970;10.082;2024-02-04T00:15:07;3.22;;;1.98;;
64188;SDS011;50493;50.970;10.082;2024-02-04T00:17:33;2.90;;;1.80;;
64188;SDS011;50493;50.970;10.082;2024-02-04T00:19:59;3.40;;;2.20;;
64188;SDS011;50493;50.970;10.082;2024-02-04T00:22:24;3.42;;;2.05;;
64188;SDS011;50493;50.970;10.082;2024-02-04T00:24:50;3.40;;;2.00;;
64188;SDS011;50493;50.970;10.082;2024-02-04T00:27:15;3.55;;;2.10;;
64188;SDS011;50493;50.970;10.082;2024-02-04T00:29:42;3.38;;;1.98;;
64188;SDS011;50493;50.970;10.082;2024-02-04T00:32:07;3.10;;;1.95;;
64188;SDS011;50493;50.970;10.082;2024-02-04T00:34:32;3.42;;;2.10;;
64188;SDS011;50493;50.970;10.082;2024-02-04T00:36:58;3.60;;;2.08;;
64188;SDS011;50493;50.970;10.082;2024-02-04T00:39:24;3.72;;;1.98;;
64188;SDS011;50493;50.970;10.082;2024-02-04T00:41:49;4.72;;;1.98;;
64188;SDS011;50493;50.970;10.082;2024-02-04T00:44:14;4.05;;;2.15;;
64188;SDS011;50493;50.970;10.082;2024-02-04T00:46:41;4.88;;;2.42;;
64188;SDS011;50493;50.970;10.082;2024-02-04T00:49:06;3.70;;;2.20;;
64188;SDS011;50493;50.970;10.082;2024-02-04T00:51:32;3.97;;;2.10;;
64188;SDS011;50493;50.970;10.082;2024-02-04T00:53:58;3.78;;;2.28;;
64188;SDS011;50493;50.970;10.082;2024-02-04T00:56:23;4.57;;;2.67;;
64188;SDS011;50493;50.970;10.082;2024-02-04T00:58:48;3.40;;;2.08;;
64188;SDS011;50493;50.970;10.082;2024-02-04T01:01:14;5.85;;;3.00;;
64188;SDS011;50493;50.970;10.082;2024-02-04T01:03:40;5.43;;;3.00;;
64188;SDS011;50493;50.970;10.082;2024-02-04T01:06:06;3.70;;;2.30;;
64188;SDS011;50493;50.970;10.082;2024-02-04T01:08:31;5.50;;;3.00;;
64188;SDS011;50493;50.970;10.082;2024-02-04T01:10:56;5.53;;;2.95;;
64188;SDS011;50493;50.970;10.082;2024-02-04T01:13:22;5.43;;;2.60;;
64188;SDS011;50493;50.970;10.082;2024-02-04T01:15:47;5.32;;;2.97;;
64188;SDS011;50493;50.970;10.082;2024-02-04T01:18:12;5.97;;;3.20;;
64188;SDS011;50493;50.970;10.082;2024-02-04T01:20:39;5.15;;;2.63;;
64188;SDS011;50493;50.970;10.082;2024-02-04T01:23:04;4.88;;;2.70;;
64188;SDS011;50493;50.970;10.082;2024-02-04T01:25:30;4.50;;;2.47;;
64188;SDS011;50493;50.970;10.082;2024-02-04T01:27:55;4.90;;;3.08;;
64188;SDS011;50493;50.970;10.082;2024-02-04T01:30:20;4.38;;;2.75;;
64188;SDS011;50493;50.970;10.082;2024-02-04T01:32:46;5.82;;;3.13;;
64188;SDS011;50493;50.970;10.082;2024-02-04T01:35:11;5.03;;;2.55;;
64188;SDS011;50493;50.970;10.082;2024-02-04T01:37:38;5.13;;;3.10;;
64188;SDS011;50493;50.970;10.082;2024-02-04T01:40:03;6.90;;;4.07;;
64188;SDS011;50493;50.970;10.082;2024-02-04T01:42:30;5.97;;;3.42;;
64188;SDS011;50493;50.970;10.082;2024-02-04T01:44:56;4.70;;;2.83;;
64188;SDS011;50493;50.970;10.082;2024-02-04T01:47:21;5.93;;;3.30;;
64188;SDS011;50493;50.970;10.082;2024-02-04T01:49:47;6.70;;;2.88;;
64188;SDS011;50493;50.970;10.082;2024-02-04T01:52:12;5.45;;;3.10;;
64188;SDS011;50493;50.970;10.082;2024-02-04T01:54:39;6.07;;;3.30;;
64188;SDS011;50493;50.970;10.082;2024-02-04T01:57:06;5.70;;;3.35;;
64188;SDS011;50493;50.970;10.082;2024-02-04T01:59:33;4.25;;;2.38;;
64188;SDS011;50493;50.970;10.082;2024-02-04T02:01:58;3.92;;;2.45;;
64188;SDS011;50493;50.970;10.082;2024-02-04T02:04:25;3.97;;;2.25;;
64188;SDS011;50493;50.970;10.082;2024-02-04T02:06:50;4.35;;;2.38;;
64188;SDS011;50493;50.970;10.082;2024-02-04T02:09:16;5.07;;;2.63;;
64188;SDS011;50493;50.970;10.082;2024-02-04T02:11:44;5.78;;;2.75;;
64188;SDS011;50493;50.970;10.082;2024-02-04T02:14:13;3.47;;;2.08;;
64188;SDS011;50493;50.970;10.082;2024-02-04T02:16:41;4.35;;;1.90;;
64188;SDS011;50493;50.970;10.082;2024-02-04T02:19:13;5.05;;;2.80;;
64188;SDS011;50493;50.970;10.082;2024-02-04T02:21:56;6.60;;;3.20;;
64188;SDS011;50493;50.970;10.082;2024-02-04T02:24:29;5.55;;;3.08;;
64188;SDS011;50493;50.970;10.082;2024-02-04T02:26:57;4.95;;;2.80;;
64188;SDS011;50493;50.970;10.082;2024-02-04T02:29:23;4.10;;;2.53;;
64188;SDS011;50493;50.970;10.082;2024-02-04T02:31:49;5.18;;;2.92;;
64188;SDS011;50493;50.970;10.082;2024-02-04T02:34:14;4.93;;;2.78;;
64188;SDS011;50493;50.970;10.082;2024-02-04T02:36:42;3.97;;;2.38;;
64188;SDS011;50493;50.970;10.082;2024-02-04T02:39:13;4.63;;;2.20;;
64188;SDS011;50493;50.970;10.082;2024-02-04T02:41:43;4.85;;;2.60;;
64188;SDS011;50493;50.970;10.082;2024-02-04T02:44:12;4.18;;;2.35;;
64188;SDS011;50493;50.970;10.082;2024-02-04T02:46:38;5.50;;;2.60;;
64188;SDS011;50493;50.970;10.082;2024-02-04T02:49:05;4.85;;;2.50;;
64188;SDS011;50493;50.970;10.082;2024-02-04T02:51:30;4.13;;;2.45;;
64188;SDS011;50493;50.970;10.082;2024-02-04T02:53:56;5.45;;;2.80;;
64188;SDS011;50493;50.970;10.082;2024-02-04T02:56:21;4.35;;;2.50;;
64188;SDS011;50493;50.970;10.082;2024-02-04T02:58:48;5.18;;;2.15;;
64188;SDS011;50493;50.970;10.082;2024-02-04T03:01:13;3.92;;;2.30;;
64188;SDS011;50493;50.970;10.082;2024-02-04T03:03:38;4.30;;;2.60;;
64188;SDS011;50493;50.970;10.082;2024-02-04T03:06:04;3.63;;;1.83;;
64188;SDS011;50493;50.970;10.082;2024-02-04T03:08:30;3.30;;;1.90;;
64188;SDS011;50493;50.970;10.082;2024-02-04T03:10:55;3.03;;;1.88;;
64188;SDS011;50493;50.970;10.082;2024-02-04T03:13:21;3.92;;;2.13;;
64188;SDS011;50493;50.970;10.082;2024-02-04T03:15:48;3.42;;;1.98;;
64188;SDS011;50493;50.970;10.082;2024-02-04T03:18:13;3.60;;;1.80;;
64188;SDS011;50493;50.970;10.082;2024-02-04T03:20:38;3.17;;;1.40;;
64188;SDS011;50493;50.970;10.082;2024-02-04T03:23:04;1.92;;;1.23;;
64188;SDS011;50493;50.970;10.082;2024-02-04T03:25:30;2.13;;;1.35;;
64188;SDS011;50493;50.970;10.082;2024-02-04T03:27:55;3.80;;;2.20;;
64188;SDS011;50493;50.970;10.082;2024-02-04T03:30:20;2.90;;;1.60;;
64188;SDS011;50493;50.970;10.082;2024-02-04T03:32:48;3.13;;;1.88;;
64188;SDS011;50493;50.970;10.082;2024-02-04T03:35:13;2.33;;;1.58;;
64188;SDS011;50493;50.970;10.082;2024-02-04T03:37:38;3.00;;;1.77;;
64188;SDS011;50493;50.970;10.082;2024-02-04T03:40:04;4.10;;;2.25;;
64188;SDS011;50493;50.970;10.082;2024-02-04T03:42:30;2.20;;;1.27;;
64188;SDS011;50493;50.970;10.082;2024-02-04T03:44:55;1.60;;;1.10;;
64188;SDS011;50493;50.970;10.082;2024-02-04T03:47:21;2.30;;;1.30;;
64188;SDS011;50493;50.970;10.082;2024-02-04T03:49:48;4.32;;;1.80;;
64188;SDS011;50493;50.970;10.082;2024-02-04T03:52:13;3.13;;;1.80;;
64188;SDS011;50493;50.970;10.082;2024-02-04T03:54:38;3.67;;;1.70;;
64188;SDS011;50493;50.970;10.082;2024-02-04T03:57:04;1.25;;;0.98;;
64188;SDS011;50493;50.970;10.082;2024-02-04T03:59:29;3.05;;;1.88;;
64188;SDS011;50493;50.970;10.082;2024-02-04T04:01:54;2.83;;;1.35;;
64188;SDS011;50493;50.970;10.082;2024-02-04T04:04:20;2.80;;;1.48;;
64188;SDS011;50493;50.970;10.082;2024-02-04T04:06:46;4.93;;;1.52;;
64188;SDS011;50493;50.970;10.082;2024-02-04T04:09:13;2.53;;;1.50;;
64188;SDS011;50493;50.970;10.082;2024-02-04T04:11:39;4.78;;;1.52;;
64188;SDS011;50493;50.970;10.082;2024-02-04T04:14:04;3.00;;;1.80;;
64188;SDS011;50493;50.970;10.082;2024-02-04T04:16:29;5.22;;;2.50;;
64188;SDS011;50493;50.970;10.082;2024-02-04T04:18:55;4.80;;;2.67;;
64188;SDS011;50493;50.970;10.082;2024-02-04T04:21:20;4.10;;;2.00;;
64188;SDS011;50493;50.970;10.082;2024-02-04T04:23:47;2.92;;;1.70;;
64188;SDS011;50493;50.970;10.082;2024-02-04T04:26:12;3.33;;;1.55;;
64188;SDS011;50493;50.970;10.082;2024-02-04T04:28:37;3.13;;;1.70;;
64188;SDS011;50493;50.970;10.082;2024-02-04T04:31:03;3.15;;;1.90;;
64188;SDS011;50493;50.970;10.082;2024-02-04T04:33:29;1.65;;;1.00;;
64188;SDS011;50493;50.970;10.082;2024-02-04T04:35:54;2.30;;;1.50;;
64188;SDS011;50493;50.970;10.082;2024-02-04T04:38:20;3.30;;;1.75;;
64188;SDS011;50493;50.970;10.082;2024-02-04T04:40:46;1.67;;;1.10;;
64188;SDS011;50493;50.970;10.082;2024-02-04T04:43:12;1.67;;;0.93;;
64188;SDS011;50493;50.970;10.082;2024-02-04T04:45:37;1.75;;;1.08;;
64188;SDS011;50493;50.970;10.082;2024-02-04T04:48:03;1.40;;;0.80;;
64188;SDS011;50493;50.970;10.082;2024-02-04T04:50:29;1.60;;;0.77;;
64188;SDS011;50493;50.970;10.082;2024-02-04T04:52:54;3.15;;;1.63;;
64188;SDS011;50493;50.970;10.082;2024-02-04T04:55:20;2.15;;;0.90;;
64188;SDS011;50493;50.970;10.082;2024-02-04T04:57:46;1.73;;;1.15;;
64188;SDS011;50493;50.970;10.082;2024-02-04T05:00:13;1.92;;;1.27;;
64188;SDS011;50493;50.970;10.082;2024-02-04T05:02:39;2.17;;;1.30;;
64188;SDS011;50493;50.970;10.082;2024-02-04T05:05:05;1.63;;;0.55;;
64188;SDS011;50493;50.970;10.082;2024-02-04T05:07:31;2.65;;;1.10;;
64188;SDS011;50493;50.970;10.082;2024-02-04T05:09:56;2.22;;;1.40;;
64188;SDS011;50493;50.970;10.082;2024-02-04T05:12:22;2.78;;;1.50;;
64188;SDS011;50493;50.970;10.082;2024-02-04T05:14:48;0.43;;;0.30;;
64188;SDS011;50493;50.970;10.082;2024-02-04T05:17:14;0.98;;;0.75;;
64188;SDS011;50493;50.970;10.082;2024-02-04T05:19:40;0.60;;;0.50;;
64188;SDS011;50493;50.970;10.082;2024-02-04T05:22:06;1.52;;;0.82;;
64188;SDS011;50493;50.970;10.082;2024-02-04T05:24:31;1.65;;;0.88;;
64188;SDS011;50493;50.970;10.082;2024-02-04T05:26:56;1.42;;;0.95;;
64188;SDS011;50493;50.970;10.082;2024-02-04T05:29:21;1.95;;;1.00;;
64188;SDS011;50493;50.970;10.082;2024-02-04T05:31:48;3.72;;;0.80;;
64188;SDS011;50493;50.970;10.082;2024-02-04T05:34:13;1.38;;;0.68;;
64188;SDS011;50493;50.970;10.082;2024-02-04T05:36:39;1.15;;;0.52;;
64188;SDS011;50493;50.970;10.082;2024-02-04T05:39:09;2.65;;;0.73;;
64188;SDS011;50493;50.970;10.082;2024-02-04T05:41:35;1.40;;;0.90;;
64188;SDS011;50493;50.970;10.082;2024-02-04T05:44:00;1.67;;;1.10;;
64188;SDS011;50493;50.970;10.082;2024-02-04T05:46:26;2.28;;;1.40;;
64188;SDS011;50493;50.970;10.082;2024-02-04T05:48:54;2.20;;;1.30;;
64188;SDS011;50493;50.970;10.082;2024-02-04T05:51:19;1.48;;;0.45;;
64188;SDS011;50493;50.970;10.082;2024-02-04T05:53:44;1.50;;;0.90;;
64188;SDS011;50493;50.970;10.082;2024-02-04T05:56:10;0.90;;;0.75;;
64188;SDS011;50493;50.970;10.082;2024-02-04T05:58:35;1.40;;;0.95;;
64188;SDS011;50493;50.970;10.082;2024-02-04T06:01:02;1.48;;;1.02;;
64188;SDS011;50493;50.970;10.082;2024-02-04T06:03:27;1.90;;;0.73;;
64188;SDS011;50493;50.970;10.082;2024-02-04T06:05:54;2.05;;;0.80;;
64188;SDS011;50493;50.970;10.082;2024-02-04T06:08:19;0.45;;;0.40;;
64188;SDS011;50493;50.970;10.082;2024-02-04T06:10:45;2.10;;;0.90;;
64188;SDS011;50493;50.970;10.082;2024-02-04T06:13:10;2.03;;;0.90;;
64188;SDS011;50493;50.970;10.082;2024-02-04T06:15:35;1.00;;;0.80;;
64188;SDS011;50493;50.970;10.082;2024-02-04T06:18:01;1.63;;;0.70;;
64188;SDS011;50493;50.970;10.082;2024-02-04T06:20:26;1.15;;;0.77;;
64188;SDS011;50493;50.970;10.082;2024-02-04T06:22:53;1.40;;;0.90;;
64188;SDS011;50493;50.970;10.082;2024-02-04T06:25:18;0.95;;;0.70;;
64188;SDS011;50493;50.970;10.082;2024-02-04T06:27:43;0.75;;;0.50;;
64188;SDS011;50493;50.970;10.082;2024-02-04T06:30:09;0.77;;;0.57;;
64188;SDS011;50493;50.970;10.082;2024-02-04T06:32:35;1.10;;;0.55;;
64188;SDS011;50493;50.970;10.082;2024-02-04T06:35:01;1.08;;;0.75;;
64188;SDS011;50493;50.970;10.082;2024-02-04T06:37:26;1.02;;;0.70;;
64188;SDS011;50493;50.970;10.082;2024-02-04T06:39:53;1.17;;;0.80;;
64188;SDS011;50493;50.970;10.082;2024-02-04T06:42:18;0.68;;;0.50;;
64188;SDS011;50493;50.970;10.082;2024-02-04T06:44:43;1.40;;;0.90;;
64188;SDS011;50493;50.970;10.082;2024-02-04T06:47:09;1.75;;;0.90;;
64188;SDS011;50493;50.970;10.082;2024-02-04T06:49:37;1.02;;;0.80;;
64188;SDS011;50493;50.970;10.082;2024-02-04T06:52:02;0.85;;;0.57;;
64188;SDS011;50493;50.970;10.082;2024-02-04T06:54:28;0.50;;;0.50;;
64188;SDS011;50493;50.970;10.082;2024-02-04T06:56:55;0.82;;;0.77;;
64188;SDS011;50493;50.970;10.082;2024-02-04T06:59:20;0.73;;;0.50;;
64188;SDS011;50493;50.970;10.082;2024-02-04T07:01:46;1.23;;;0.57;;
64188;SDS011;50493;50.970;10.082;2024-02-04T07:04:12;2.40;;;0.77;;
64188;SDS011;50493;50.970;10.082;2024-02-04T07:06:37;1.35;;;0.70;;
64188;SDS011;50493;50.970;10.082;2024-02-04T07:09:02;0.80;;;0.50;;
64188;SDS011;50493;50.970;10.082;2024-02-04T07:11:28;0.73;;;0.50;;
64188;SDS011;50493;50.970;10.082;2024-02-04T07:13:55;2.28;;;0.98;;
64188;SDS011;50493;50.970;10.082;2024-02-04T07:16:25;1.40;;;0.80;;
64188;SDS011;50493;50.970;10.082;2024-02-04T07:18:50;1.27;;;0.70;;
64188;SDS011;50493;50.970;10.082;2024-02-04T07:21:16;1.55;;;0.90;;
64188;SDS011;50493;50.970;10.082;2024-02-04T07:23:41;1.33;;;0.80;;
64188;SDS011;50493;50.970;10.082;2024-02-04T07:26:07;1.40;;;0.95;;
64188;SDS011;50493;50.970;10.082;2024-02-04T07:28:32;2.33;;;1.20;;
64188;SDS011;50493;50.970;10.082;2024-02-04T07:30:59;1.10;;;0.77;;
64188;SDS011;50493;50.970;10.082;2024-02-04T07:33:24;2.45;;;1.10;;
64188;SDS011;50493;50.970;10.082;2024-02-04T07:35:49;2.65;;;1.13;;
64188;SDS011;50493;50.970;10.082;2024-02-04T07:38:15;1.60;;;0.98;;
64188;SDS011;50493;50.970;10.082;2024-02-04T07:40:40;1.17;;;0.88;;
64188;SDS011;50493;50.970;10.082;2024-02-04T07:43:05;1.42;;;1.00;;
64188;SDS011;50493;50.970;10.082;2024-02-04T07:45:31;1.27;;;0.80;;
64188;SDS011;50493;50.970;10.082;2024-02-04T07:47:57;1.20;;;0.70;;
64188;SDS011;50493;50.970;10.082;2024-02-04T07:50:23;0.70;;;0.52;;
64188;SDS011;50493;50.970;10.082;2024-02-04T07:52:48;0.90;;;0.55;;
64188;SDS011;50493;50.970;10.082;2024-02-04T07:55:13;1.13;;;0.90;;
64188;SDS011;50493;50.970;10.082;2024-02-04T07:57:39;1.73;;;1.10;;
64188;SDS011;50493;50.970;10.082;2024-02-04T08:00:05;1.25;;;0.80;;
64188;SDS011;50493;50.970;10.082;2024-02-04T08:02:34;1.10;;;0.82;;
64188;SDS011;50493;50.970;10.082;2024-02-04T08:05:01;2.58;;;1.05;;
64188;SDS011;50493;50.970;10.082;2024-02-04T08:07:26;1.85;;;1.08;;
64188;SDS011;50493;50.970;10.082;2024-02-04T08:09:51;1.60;;;1.00;;
64188;SDS011;50493;50.970;10.082;2024-02-04T08:12:17;2.90;;;1.27;;
64188;SDS011;50493;50.970;10.082;2024-02-04T08:14:42;1.50;;;1.10;;
64188;SDS011;50493;50.970;10.082;2024-02-04T08:17:08;2.10;;;1.17;;
64188;SDS011;50493;50.970;10.082;2024-02-04T08:19:33;1.95;;;1.20;;
64188;SDS011;50493;50.970;10.082;2024-02-04T08:22:00;4.82;;;2.58;;
64188;SDS011;50493;50.970;10.082;2024-02-04T08:24:25;2.50;;;1.48;;
64188;SDS011;50493;50.970;10.082;2024-02-04T08:26:51;2.55;;;1.38;;
64188;SDS011;50493;50.970;10.082;2024-02-04T08:29:16;5.38;;;2.70;;
64188;SDS011;50493;50.970;10.082;2024-02-04T08:31:41;2.30;;;1.40;;
64188;SDS011;50493;50.970;10.082;2024-02-04T08:34:07;3.80;;;2.10;;
64188;SDS011;50493;50.970;10.082;2024-02-04T08:36:32;3.83;;;1.90;;
64188;SDS011;50493;50.970;10.082;2024-02-04T08:38:59;3.22;;;1.60;;
64188;SDS011;50493;50.970;10.082;2024-02-04T08:41:24;4.82;;;2.38;;
64188;SDS011;50493;50.970;10.082;2024-02-04T08:43:49;6.85;;;3.22;;
64188;SDS011;50493;50.970;10.082;2024-02-04T08:46:15;6.57;;;2.67;;
64188;SDS011;50493;50.970;10.082;2024-02-04T08:48:40;6.25;;;3.25;;
64188;SDS011;50493;50.970;10.082;2024-02-04T08:51:09;9.35;;;3.88;;
64188;SDS011;50493;50.970;10.082;2024-02-04T08:53:35;8.38;;;4.07;;
64188;SDS011;50493;50.970;10.082;2024-02-04T08:56:02;7.73;;;3.40;;
64188;SDS011;50493;50.970;10.082;2024-02-04T08:58:27;7.80;;;3.97;;
64188;SDS011;50493;50.970;10.082;2024-02-04T09:00:53;7.30;;;3.20;;
64188;SDS011;50493;50.970;10.082;2024-02-04T09:03:18;7.40;;;3.63;;
64188;SDS011;50493;50.970;10.082;2024-02-04T09:05:43;7.20;;;3.65;;
64188;SDS011;50493;50.970;10.082;2024-02-04T09:08:09;7.35;;;3.67;;
64188;SDS011;50493;50.970;10.082;2024-02-04T09:10:35;7.75;;;3.75;;
64188;SDS011;50493;50.970;10.082;2024-02-04T09:13:02;7.90;;;3.88;;
64188;SDS011;50493;50.970;10.082;2024-02-04T09:15:28;7.25;;;3.50;;
64188;SDS011;50493;50.970;10.082;2024-02-04T09:17:53;6.82;;;2.78;;
64188;SDS011;50493;50.970;10.082;2024-02-04T09:20:19;5.90;;;3.30;;
64188;SDS011;50493;50.970;10.082;2024-02-04T09:22:44;6.53;;;3.33;;
64188;SDS011;50493;50.970;10.082;2024-02-04T09:25:09;5.43;;;3.15;;
64188;SDS011;50493;50.970;10.082;2024-02-04T09:27:34;5.57;;;2.78;;
64188;SDS011;50493;50.970;10.082;2024-02-04T09:30:02;5.18;;;2.83;;
64188;SDS011;50493;50.970;10.082;2024-02-04T09:32:27;6.28;;;3.58;;
64188;SDS011;50493;50.970;10.082;2024-02-04T09:34:53;5.40;;;2.97;;
64188;SDS011;50493;50.970;10.082;2024-02-04T09:37:19;5.35;;;3.17;;
64188;SDS011;50493;50.970;10.082;2024-02-04T09:39:44;3.45;;;1.98;;
64188;SDS011;50493;50.970;10.082;2024-02-04T09:42:09;4.13;;;2.42;;
64188;SDS011;50493;50.970;10.082;2024-02-04T09:44:42;6.43;;;2.97;;
64188;SDS011;50493;50.970;10.082;2024-02-04T09:47:08;5.15;;;2.13;;
64188;SDS011;50493;50.970;10.082;2024-02-04T09:49:36;3.47;;;2.10;;
64188;SDS011;50493;50.970;10.082;2024-02-04T09:52:04;3.20;;;2.00;;
64188;SDS011;50493;50.970;10.082;2024-02-04T09:54:32;4.70;;;1.90;;
64188;SDS011;50493;50.970;10.082;2024-02-04T09:57:02;5.18;;;2.53;;
64188;SDS011;50493;50.970;10.082;2024-02-04T09:59:28;4.07;;;2.00;;
64188;SDS011;50493;50.970;10.082;2024-02-04T10:01:54;4.68;;;2.47;;
64188;SDS011;50493;50.970;10.082;2024-02-04T10:04:22;3.40;;;1.80;;
64188;SDS011;50493;50.970;10.082;2024-02-04T10:06:47;3.00;;;1.65;;
64188;SDS011;50493;50.970;10.082;2024-02-04T10:09:12;4.95;;;2.15;;
64188;SDS011;50493;50.970;10.082;2024-02-04T10:11:38;2.42;;;1.20;;
64188;SDS011;50493;50.970;10.082;2024-02-04T10:14:03;3.67;;;1.58;;
64188;SDS011;50493;50.970;10.082;2024-02-04T10:16:28;4.25;;;1.45;;
64188;SDS011;50493;50.970;10.082;2024-02-04T10:18:54;4.07;;;1.70;;
64188;SDS011;50493;50.970;10.082;2024-02-04T10:21:23;4.30;;;1.30;;
64188;SDS011;50493;50.970;10.082;2024-02-04T10:23:49;2.83;;;1.40;;
64188;SDS011;50493;50.970;10.082;2024-02-04T10:26:15;3.10;;;1.73;;
64188;SDS011;50493;50.970;10.082;2024-02-04T10:28:41;4.07;;;1.70;;
64188;SDS011;50493;50.970;10.082;2024-02-04T10:31:08;3.08;;;1.30;;
64188;SDS011;50493;50.970;10.082;2024-02-04T10:33:34;2.65;;;1.25;;
64188;SDS011;50493;50.970;10.082;2024-02-04T10:36:00;3.03;;;1.38;;
64188;SDS011;50493;50.970;10.082;2024-02-04T10:38:26;2.83;;;1.48;;
64188;SDS011;50493;50.970;10.082;2024-02-04T10:40:53;1.05;;;0.80;;
64188;SDS011;50493;50.970;10.082;2024-02-04T10:43:19;2.30;;;1.30;;
64188;SDS011;50493;50.970;10.082;2024-02-04T10:45:47;1.70;;;0.98;;
64188;SDS011;50493;50.970;10.082;2024-02-04T10:48:12;2.15;;;0.85;;
64188;SDS011;50493;50.970;10.082;2024-02-04T10:50:44;2.17;;;1.40;;
64188;SDS011;50493;50.970;10.082;2024-02-04T10:53:13;2.10;;;1.15;;
64188;SDS011;50493;50.970;10.082;2024-02-04T10:55:41;2.85;;;1.48;;
64188;SDS011;50493;50.970;10.082;2024-02-04T10:58:08;2.67;;;1.40;;
64188;SDS011;50493;50.970;10.082;2024-02-04T11:00:37;3.65;;;1.70;;
64188;SDS011;50493;50.970;10.082;2024-02-04T11:03:03;2.88;;;1.30;;
64188;SDS011;50493;50.970;10.082;2024-02-04T11:05:30;2.78;;;1.60;;
64188;SDS011;50493;50.970;10.082;2024-02-04T11:07:59;4.15;;;1.25;;
64188;SDS011;50493;50.970;10.082;2024-02-04T11:10:26;2.05;;;1.20;;
64188;SDS011;50493;50.970;10.082;2024-02-04T11:12:54;1.73;;;1.00;;
64188;SDS011;50493;50.970;10.082;2024-02-04T11:15:21;1.42;;;0.93;;
64188;SDS011;50493;50.970;10.082;2024-02-04T11:17:57;2.40;;;1.30;;
64188;SDS011;50493;50.970;10.082;2024-02-04T11:20:40;2.75;;;1.10;;
64188;SDS011;50493;50.970;10.082;2024-02-04T11:23:22;2.78;;;1.20;;
64188;SDS011;50493;50.970;10.082;2024-02-04T11:26:06;2.10;;;1.20;;
64188;SDS011;50493;50.970;10.082;2024-02-04T11:28:33;2.65;;;1.00;;
64188;SDS011;50493;50.970;10.082;2024-02-04T11:30:59;1.77;;;1.02;;
64188;SDS011;50493;50.970;10.082;2024-02-04T11:33:24;2.15;;;1.20;;
64188;SDS011;50493;50.970;10.082;2024-02-04T11:35:59;1.23;;;0.80;;
64188;SDS011;50493;50.970;10.082;2024-02-04T11:38:29;2.50;;;1.13;;
64188;SDS011;50493;50.970;10.082;2024-02-04T11:40:55;1.60;;;1.10;;
64188;SDS011;50493;50.970;10.082;2024-02-04T11:43:22;1.50;;;1.02;;
64188;SDS011;50493;50.970;10.082;2024-02-04T11:45:51;2.30;;;1.30;;
64188;SDS011;50493;50.970;10.082;2024-02-04T11:48:18;3.67;;;1.80;;
64188;SDS011;50493;50.970;10.082;2024-02-04T11:50:51;2.28;;;1.38;;
64188;SDS011;50493;50.970;10.082;2024-02-04T11:53:17;2.67;;;1.25;;
64188;SDS011;50493;50.970;10.082;2024-02-04T11:55:43;1.42;;;1.00;;
64188;SDS011;50493;50.970;10.082;2024-02-04T11:58:10;1.95;;;1.10;;
64188;SDS011;50493;50.970;10.082;2024-02-04T12:00:36;5.20;;;1.20;;
64188;SDS011;50493;50.970;10.082;2024-02-04T12:03:03;2.95;;;1.27;;
64188;SDS011;50493;50.970;10.082;2024-02-04T12:05:30;2.10;;;1.25;;
64188;SDS011;50493;50.970;10.082;2024-02-04T12:07:57;2.35;;;1.40;;
64188;SDS011;50493;50.970;10.082;2024-02-04T12:10:23;1.40;;;0.80;;
64188;SDS011;50493;50.970;10.082;2024-02-04T12:12:50;2.20;;;1.20;;
64188;SDS011;50493;50.970;10.082;2024-02-04T12:15:16;2.92;;;1.20;;
64188;SDS011;50493;50.970;10.082;2024-02-04T12:17:42;1.98;;;1.10;;
64188;SDS011;50493;50.970;10.082;2024-02-04T12:20:10;2.17;;;1.17;;
64188;SDS011;50493;50.970;10.082;2024-02-04T12:22:35;2.28;;;1.10;;
64188;SDS011;50493;50.970;10.082;2024-02-04T12:25:02;3.33;;;1.20;;
64188;SDS011;50493;50.970;10.082;2024-02-04T12:27:28;2.45;;;1.08;;
64188;SDS011;50493;50.970;10.082;2024-02-04T12:29:53;2.20;;;1.10;;
64188;SDS011;50493;50.970;10.082;2024-02-04T12:32:19;3.45;;;1.20;;
64188;SDS011;50493;50.970;10.082;2024-02-04T12:34:46;1.92;;;1.20;;
64188;SDS011;50493;50.970;10.082;2024-02-04T12:37:13;1.80;;;1.10;;
64188;SDS011;50493;50.970;10.082;2024-02-04T12:39:38;2.60;;;1.27;;
64188;SDS011;50493;50.970;10.082;2024-02-04T12:42:04;1.73;;;1.00;;
64188;SDS011;50493;50.970;10.082;2024-02-04T12:44:30;2.10;;;1.20;;
64188;SDS011;50493;50.970;10.082;2024-02-04T12:46:56;1.92;;;1.20;;
64188;SDS011;50493;50.970;10.082;2024-02-04T12:49:21;3.33;;;1.10;;
64188;SDS011;50493;50.970;10.082;2024-02-04T12:51:47;2.97;;;1.02;;
64188;SDS011;50493;50.970;10.082;2024-02-04T12:54:14;1.60;;;0.82;;
64188;SDS011;50493;50.970;10.082;2024-02-04T12:56:41;1.90;;;1.20;;
64188;SDS011;50493;50.970;10.082;2024-02-04T12:59:08;2.05;;;1.20;;
64188;SDS011;50493;50.970;10.082;2024-02-04T13:01:34;2.10;;;1.20;;
64188;SDS011;50493;50.970;10.082;2024-02-04T13:04:00;2.00;;;1.02;;
64188;SDS011;50493;50.970;10.082;2024-02-04T13:06:25;2.00;;;1.00;;
64188;SDS011;50493;50.970;10.082;2024-02-04T13:08:54;2.92;;;1.20;;
64188;SDS011;50493;50.970;10.082;2024-02-04T13:11:23;1.73;;;1.02;;
64188;SDS011;50493;50.970;10.082;2024-02-04T13:13:52;2.25;;;1.13;;
64188;SDS011;50493;50.970;10.082;2024-02-04T13:16:17;2.25;;;1.30;;
64188;SDS011;50493;50.970;10.082;2024-02-04T13:18:44;1.85;;;1.30;;
64188;SDS011;50493;50.970;10.082;2024-02-04T13:21:16;3.55;;;1.35;;
64188;SDS011;50493;50.970;10.082;2024-02-04T13:23:45;1.35;;;0.95;;
64188;SDS011;50493;50.970;10.082;2024-02-04T13:26:10;3.95;;;1.20;;
64188;SDS011;50493;50.970;10.082;2024-02-04T13:28:36;1.58;;;1.20;;
64188;SDS011;50493;50.970;10.082;2024-02-04T13:31:03;2.40;;;1.20;;
64188;SDS011;50493;50.970;10.082;2024-02-04T13:33:29;2.10;;;1.40;;
64188;SDS011;50493;50.970;10.082;2024-02-04T13:35:54;1.98;;;1.10;;
64188;SDS011;50493;50.970;10.082;2024-02-04T13:38:20;2.00;;;1.38;;
64188;SDS011;50493;50.970;10.082;2024-02-04T13:40:46;3.42;;;1.30;;
64188;SDS011;50493;50.970;10.082;2024-02-04T13:43:11;2.20;;;1.40;;
64188;SDS011;50493;50.970;10.082;2024-02-04T13:45:38;1.98;;;1.30;;
64188;SDS011;50493;50.970;10.082;2024-02-04T13:48:05;1.45;;;1.02;;
64188;SDS011;50493;50.970;10.082;2024-02-04T13:50:30;2.35;;;1.20;;
64188;SDS011;50493;50.970;10.082;2024-02-04T13:52:56;2.50;;;1.35;;
64188;SDS011;50493;50.970;10.082;2024-02-04T13:55:23;2.78;;;1.30;;
64188;SDS011;50493;50.970;10.082;2024-02-04T13:57:48;2.25;;;1.20;;
64188;SDS011;50493;50.970;10.082;2024-02-04T14:00:14;3.83;;;1.67;;
64188;SDS011;50493;50.970;10.082;2024-02-04T14:02:41;2.20;;;1.33;;
64188;SDS011;50493;50.970;10.082;2024-02-04T14:05:07;2.47;;;1.30;;
64188;SDS011;50493;50.970;10.082;2024-02-04T14:07:32;2.60;;;1.63;;
64188;SDS011;50493;50.970;10.082;2024-02-04T14:09:58;2.42;;;1.20;;
64188;SDS011;50493;50.970;10.082;2024-02-04T14:12:23;3.40;;;1.33;;
64188;SDS011;50493;50.970;10.082;2024-02-04T14:14:49;2.28;;;1.42;;
64188;SDS011;50493;50.970;10.082;2024-02-04T14:17:14;3.42;;;1.60;;
64188;SDS011;50493;50.970;10.082;2024-02-04T14:19:41;3.63;;;1.88;;
64188;SDS011;50493;50.970;10.082;2024-02-04T14:22:06;3.03;;;1.48;;
64188;SDS011;50493;50.970;10.082;2024-02-04T14:24:31;2.95;;;1.50;;
64188;SDS011;50493;50.970;10.082;2024-02-04T14:26:57;2.88;;;1.70;;